Main page
METAR-TAF:

METAR-TAF

Airports :

Perales Airport

Ibagué, Colombia

latitude: 04-26N, longitude: 075-09W, elevation: 928 m

Current weather observation

The report was made 12 hours and 36 minutes ago, at 23:00 UTC
Wind 9 kt from the Southeast
Temperature 25°C
Humidity 89%
Pressure 1015 hPa
Visibility 10 km or more
Broken clouds at a height of 3000 ft

METAR: SKIB 312300Z 13009KT 9999 BKN030 25/23 A2997

Time: 06:36 (11:36 UTC)


TAF: missing

Weather observations and forecasts of more than 4000 airports (METAR and TAF reports).

The available stations are represented by yellow and red dots on the map.

Hover mouse over dot to see the name of the station.

Then click to see weather observations and forecasts.

To change the map : click on the green buttons with a black cross to zoom in, on the green button with a dash to zoom out, or on the green arrows for adjacent maps.


METAR-TAF: